createdAt,value
2023-01-20T00:01:54.944Z,10.74
2023-01-20T00:04:24.262Z,11.15
2023-01-20T00:06:53.746Z,10.91
2023-01-20T00:09:22.958Z,11.27
2023-01-20T00:11:53.444Z,10.91
2023-01-20T00:14:25.335Z,11.18
2023-01-20T00:16:57.435Z,10.93
2023-01-20T00:19:26.921Z,11.03
2023-01-20T00:21:56.491Z,10.89
2023-01-20T00:24:25.953Z,11.04
2023-01-20T00:26:56.564Z,11.05
2023-01-20T00:29:26.261Z,11.13
2023-01-20T00:31:55.449Z,11.02
2023-01-20T00:34:24.699Z,11.31
2023-01-20T00:36:54.028Z,11.20
2023-01-20T00:39:23.764Z,11.09
2023-01-20T00:41:53.756Z,11.11
2023-01-20T00:44:25.078Z,11.34
2023-01-20T00:46:54.691Z,10.92
2023-01-20T00:49:24.467Z,11.28
2023-01-20T00:51:53.923Z,11.21
2023-01-20T00:54:23.159Z,11.43
2023-01-20T00:56:52.894Z,10.98
2023-01-20T00:59:22.443Z,11.12
2023-01-20T01:01:53.243Z,10.64
2023-01-20T01:04:22.495Z,10.95
2023-01-20T01:06:52.118Z,10.86
2023-01-20T01:09:21.888Z,10.40
2023-01-20T01:11:52.998Z,10.81
2023-01-20T01:14:22.769Z,9.29
2023-01-20T01:16:53.498Z,8.99
2023-01-20T01:19:22.602Z,8.92
2023-01-20T01:21:52.421Z,8.90
2023-01-20T01:24:22.575Z,10.53
2023-01-20T01:26:53.688Z,10.48
2023-01-20T01:29:22.979Z,10.87
2023-01-20T01:31:53.485Z,10.80
2023-01-20T01:34:22.976Z,11.12
2023-01-20T01:36:52.305Z,10.99
2023-01-20T01:39:21.884Z,10.88
2023-01-20T01:41:51.458Z,10.80
2023-01-20T01:44:21.315Z,10.77
2023-01-20T01:46:50.501Z,10.51
2023-01-20T01:49:23.680Z,10.88
2023-01-20T01:51:59.539Z,10.87
2023-01-20T01:54:34.003Z,10.93
2023-01-20T01:57:03.882Z,10.59
2023-01-20T01:59:32.992Z,10.14
2023-01-20T02:02:02.419Z,10.30
2023-01-20T02:04:34.282Z,9.29
2023-01-20T02:07:06.800Z,8.56
2023-01-20T02:09:37.138Z,9.91
2023-01-20T02:12:11.190Z,9.77
2023-01-20T02:14:45.122Z,9.91
2023-01-20T02:17:22.859Z,8.95
2023-01-20T02:20:39.627Z,9.86
2023-01-20T02:23:16.809Z,9.90
2023-01-20T02:26:03.197Z,9.77
2023-01-20T02:28:53.266Z,10.01
2023-01-20T02:31:43.001Z,9.91
2023-01-20T02:34:17.826Z,9.60
2023-01-20T02:36:52.329Z,9.63
2023-01-20T02:39:27.350Z,9.71
2023-01-20T02:42:02.937Z,9.89
2023-01-20T02:44:39.919Z,9.74
2023-01-20T02:47:14.662Z,9.98
2023-01-20T02:49:54.213Z,10.16
2023-01-20T02:52:27.228Z,9.91
2023-01-20T02:55:01.555Z,9.73
2023-01-20T02:57:37.215Z,9.83
2023-01-20T03:00:13.172Z,9.73
2023-01-20T03:02:45.516Z,9.71
2023-01-20T03:05:19.891Z,9.98
2023-01-20T03:07:51.747Z,9.65
2023-01-20T03:10:26.216Z,9.72
2023-01-20T03:12:58.831Z,9.58
2023-01-20T03:15:37.053Z,10.02
2023-01-20T03:18:06.377Z,10.05
2023-01-20T03:20:38.125Z,9.62
2023-01-20T03:23:07.935Z,9.95
2023-01-20T03:25:39.206Z,10.12
2023-01-20T03:28:08.843Z,10.02
2023-01-20T03:30:38.290Z,10.06
2023-01-20T03:33:09.009Z,9.72
2023-01-20T03:35:42.793Z,9.30
2023-01-20T03:38:12.258Z,9.15
2023-01-20T03:40:48.182Z,7.43
2023-01-20T03:43:24.536Z,7.12
2023-01-20T03:46:02.276Z,6.87
2023-01-20T03:48:41.287Z,6.80
2023-01-20T03:51:19.658Z,6.62
2023-01-20T03:53:54.626Z,6.89
2023-01-20T03:56:31.414Z,6.90
2023-01-20T03:59:04.081Z,6.85
2023-01-20T04:01:37.915Z,6.71
2023-01-20T04:04:11.180Z,7.06
2023-01-20T04:06:43.831Z,7.01
2023-01-20T04:09:18.415Z,7.11
2023-01-20T04:11:47.867Z,7.10
2023-01-20T04:14:17.856Z,7.84
2023-01-20T04:16:53.484Z,8.90
2023-01-20T04:19:22.937Z,9.49
2023-01-20T04:22:00.124Z,9.75
2023-01-20T04:24:32.644Z,9.73
2023-01-20T04:27:01.980Z,10.08
2023-01-20T04:29:31.169Z,9.47
2023-01-20T04:32:01.215Z,9.96
2023-01-20T04:34:31.708Z,9.95
2023-01-20T04:37:02.811Z,9.76
2023-01-20T04:39:32.479Z,10.07
2023-01-20T04:42:01.888Z,9.90
2023-01-20T04:44:31.532Z,9.59
2023-01-20T04:47:01.299Z,9.64
2023-01-20T04:49:30.550Z,9.63
2023-01-20T04:52:01.238Z,8.93
2023-01-20T04:54:30.518Z,9.44
2023-01-20T04:56:59.928Z,9.62
2023-01-20T04:59:29.569Z,9.48
2023-01-20T05:01:59.455Z,9.77
2023-01-20T05:04:29.206Z,9.73
2023-01-20T05:06:58.877Z,9.58
2023-01-20T05:09:29.987Z,9.77
2023-01-20T05:11:59.300Z,9.85
2023-01-20T05:14:28.496Z,9.86
2023-01-20T05:16:57.934Z,9.73
2023-01-20T05:19:27.410Z,7.75
2023-01-20T05:22:00.271Z,9.31
2023-01-20T05:24:31.506Z,9.90
2023-01-20T05:27:02.708Z,9.29
2023-01-20T05:29:32.012Z,7.58
2023-01-20T05:32:01.543Z,7.47
2023-01-20T05:34:30.653Z,7.43
2023-01-20T05:37:00.009Z,7.74
2023-01-20T05:39:30.520Z,7.72
2023-01-20T05:41:59.779Z,8.09
2023-01-20T05:44:28.778Z,7.78
2023-01-20T05:46:58.145Z,9.40
2023-01-20T05:49:27.462Z,9.28
2023-01-20T05:51:56.645Z,7.50
2023-01-20T05:54:26.829Z,8.85
2023-01-20T05:56:57.512Z,9.49
2023-01-20T05:59:27.583Z,9.88
2023-01-20T06:01:58.831Z,10.04
2023-01-20T06:04:28.257Z,9.98
2023-01-20T06:06:58.021Z,9.98
2023-01-20T06:09:27.447Z,9.91
2023-01-20T06:11:58.009Z,9.95
2023-01-20T06:14:30.382Z,9.58
2023-01-20T06:17:00.205Z,9.71
2023-01-20T06:19:29.793Z,9.20
2023-01-20T06:22:00.078Z,9.44
2023-01-20T06:24:29.929Z,9.42
2023-01-20T06:27:00.784Z,8.48
2023-01-20T06:29:30.048Z,8.87
2023-01-20T06:31:59.672Z,9.41
2023-01-20T06:34:29.018Z,9.35
2023-01-20T06:36:58.385Z,9.62
2023-01-20T06:39:27.817Z,9.37
2023-01-20T06:42:01.367Z,9.79
2023-01-20T06:44:30.766Z,7.96
2023-01-20T06:47:00.265Z,7.71
2023-01-20T06:49:30.154Z,8.24
2023-01-20T06:51:59.810Z,7.72
2023-01-20T06:54:29.101Z,7.64
2023-01-20T06:56:58.639Z,7.85
2023-01-20T06:59:29.139Z,7.93
2023-01-20T07:01:58.386Z,8.02
2023-01-20T07:04:27.863Z,8.00
2023-01-20T07:06:57.852Z,8.03
2023-01-20T07:09:27.664Z,8.21
2023-01-20T07:11:57.808Z,8.02
2023-01-20T07:14:28.204Z,8.18
2023-01-20T07:16:57.633Z,8.00
2023-01-20T07:19:26.897Z,8.25
2023-01-20T07:21:56.433Z,7.96
2023-01-20T07:24:25.940Z,8.20
2023-01-20T07:26:55.120Z,8.15
2023-01-20T07:29:24.567Z,8.28
2023-01-20T07:31:55.126Z,7.92
2023-01-20T07:34:24.338Z,8.24
2023-01-20T07:36:54.339Z,8.21
2023-01-20T07:39:23.771Z,8.40
2023-01-20T07:41:53.232Z,8.29
2023-01-20T07:44:22.640Z,8.09
2023-01-20T07:46:52.239Z,8.24
2023-01-20T07:49:22.701Z,7.74
2023-01-20T07:51:51.720Z,7.80
2023-01-20T07:54:20.966Z,7.90
2023-01-20T07:56:50.862Z,8.00
2023-01-20T07:59:20.919Z,7.96
2023-01-20T08:01:49.937Z,8.36
2023-01-20T08:04:19.316Z,8.19
2023-01-20T08:06:50.289Z,8.32
2023-01-20T08:09:19.804Z,8.62
2023-01-20T08:11:49.194Z,8.42
2023-01-20T08:14:18.586Z,8.25
2023-01-20T08:16:47.759Z,9.17
2023-01-20T08:19:17.423Z,8.36
2023-01-20T08:21:47.266Z,8.42
2023-01-20T08:24:17.801Z,8.17
2023-01-20T08:26:47.336Z,8.17
2023-01-20T08:29:16.589Z,8.27
2023-01-20T08:31:45.654Z,8.59
2023-01-20T08:34:14.942Z,8.54
2023-01-20T08:36:43.992Z,10.22
2023-01-20T08:39:18.644Z,11.03
2023-01-20T08:41:49.270Z,11.36
2023-01-20T08:44:20.624Z,11.54
2023-01-20T08:46:52.689Z,11.91
2023-01-20T08:49:23.538Z,11.70
2023-01-20T08:51:52.750Z,11.20
2023-01-20T08:54:24.172Z,9.55
2023-01-20T08:56:53.470Z,10.67
2023-01-20T08:59:23.333Z,9.57
2023-01-20T09:01:52.953Z,9.15
2023-01-20T09:04:22.808Z,8.77
2023-01-20T09:06:53.953Z,8.92
2023-01-20T09:09:24.738Z,8.79
2023-01-20T09:11:53.895Z,8.86
2023-01-20T09:14:25.258Z,8.98
2023-01-20T09:16:55.121Z,9.12
2023-01-20T09:19:24.950Z,9.29
2023-01-20T09:21:54.355Z,9.25
2023-01-20T09:24:25.854Z,9.20
2023-01-20T09:26:57.002Z,9.34
2023-01-20T09:29:26.488Z,9.22
2023-01-20T09:31:58.233Z,8.98
2023-01-20T09:34:29.945Z,10.74
2023-01-20T09:37:21.976Z,11.78
2023-01-20T09:40:10.571Z,11.26
2023-01-20T09:43:24.296Z,11.77
2023-01-20T09:45:58.622Z,11.67
2023-01-20T09:48:56.898Z,12.10
2023-01-20T09:51:52.656Z,11.92
2023-01-20T09:54:27.070Z,11.44
2023-01-20T09:57:01.555Z,11.51
2023-01-20T09:59:37.981Z,11.49
2023-01-20T10:02:14.534Z,12.03
2023-01-20T10:04:48.740Z,11.31
2023-01-20T10:07:28.615Z,11.97
2023-01-20T13:37:56.479Z,13.63
2023-01-20T13:40:50.740Z,13.13
2023-01-20T13:43:38.707Z,13.98
2023-01-20T13:46:41.660Z,13.75
2023-01-20T13:49:16.794Z,13.62
2023-01-20T13:58:00.917Z,13.77
2023-01-20T14:00:35.651Z,13.22
2023-01-20T14:03:21.388Z,10.74
2023-01-20T14:06:22.274Z,10.79
2023-01-20T14:08:53.114Z,10.62
2023-01-20T14:11:24.882Z,10.47
2023-01-20T14:13:56.284Z,10.38
2023-01-20T14:16:29.949Z,10.05
2023-01-20T14:19:14.170Z,10.35
2023-01-20T14:21:45.385Z,11.26
2023-01-20T14:24:36.638Z,9.05
2023-01-20T14:27:12.764Z,9.86
2023-01-20T14:29:43.342Z,9.67
2023-01-20T14:32:22.560Z,9.88
2023-01-20T14:34:54.842Z,9.51
2023-01-20T14:37:29.885Z,9.75
2023-01-20T14:40:03.073Z,9.81
2023-01-20T14:42:33.357Z,9.77
2023-01-20T14:45:06.765Z,9.55
2023-01-20T14:47:38.945Z,9.60
2023-01-20T14:50:14.745Z,9.67
2023-01-20T14:53:20.416Z,8.70
2023-01-20T14:56:21.633Z,9.76
2023-01-20T14:58:54.868Z,9.57
2023-01-20T15:01:28.484Z,9.32
2023-01-20T15:04:04.119Z,9.15
2023-01-20T15:06:34.955Z,8.91
2023-01-20T15:09:25.627Z,9.07
2023-01-20T15:12:29.119Z,9.07
2023-01-20T15:15:11.164Z,8.06
2023-01-20T15:17:58.914Z,9.01
2023-01-20T15:20:32.273Z,8.95
2023-01-20T15:23:02.017Z,8.36
2023-01-20T15:25:38.013Z,8.46
2023-01-20T15:28:07.801Z,8.83
2023-01-20T15:30:38.154Z,8.76
2023-01-20T15:33:11.547Z,7.50
2023-01-20T15:35:44.185Z,8.64
2023-01-20T15:38:14.476Z,8.76
2023-01-20T15:40:44.427Z,8.73
2023-01-20T15:43:17.230Z,8.26
2023-01-20T15:45:47.416Z,8.46
2023-01-20T15:48:19.596Z,7.99
2023-01-20T15:50:51.863Z,8.59
2023-01-20T15:53:21.784Z,8.48
2023-01-20T15:55:53.177Z,8.43
2023-01-20T15:58:30.953Z,7.29
2023-01-20T16:01:01.576Z,8.22
2023-01-20T16:03:33.388Z,8.15
2023-01-20T16:06:05.202Z,7.74
2023-01-20T16:08:39.021Z,8.16
2023-01-20T16:11:13.154Z,8.38
2023-01-20T16:13:43.733Z,7.67
2023-01-20T16:16:15.699Z,8.11
2023-01-20T16:18:46.066Z,8.06
2023-01-20T16:21:19.959Z,7.44
2023-01-20T16:23:50.894Z,7.64
2023-01-20T16:26:23.408Z,7.40
2023-01-20T16:28:54.822Z,7.88
2023-01-20T16:31:26.514Z,7.66
2023-01-20T16:33:56.588Z,7.74
2023-01-20T16:36:27.666Z,6.69
2023-01-20T16:38:57.938Z,7.11
2023-01-20T16:41:31.813Z,9.28
2023-01-20T16:44:01.401Z,9.88
2023-01-20T16:46:32.858Z,8.80
2023-01-20T16:49:03.652Z,9.19
2023-01-20T16:51:45.660Z,10.18
2023-01-20T16:54:15.737Z,9.49
2023-01-20T16:56:48.325Z,10.02
2023-01-20T16:59:21.006Z,10.27
2023-01-20T17:01:51.176Z,10.12
2023-01-20T17:04:26.004Z,10.06
2023-01-20T17:06:57.315Z,9.42
2023-01-20T17:09:27.071Z,9.70
2023-01-20T17:12:02.919Z,9.28
2023-01-20T17:14:42.308Z,9.53
2023-01-20T17:17:13.374Z,10.08
2023-01-20T17:19:43.901Z,9.99
2023-01-20T17:22:17.538Z,9.43
2023-01-20T17:24:47.762Z,10.05
2023-01-20T17:27:17.979Z,7.87
2023-01-20T17:29:47.951Z,7.17
2023-01-20T17:32:18.283Z,7.43
2023-01-20T17:34:49.412Z,7.61
2023-01-20T17:37:20.968Z,6.98
2023-01-20T17:39:52.368Z,7.36
2023-01-20T17:42:23.203Z,8.74
2023-01-20T17:44:54.159Z,7.28
2023-01-20T17:47:24.451Z,7.26
2023-01-20T17:49:54.956Z,7.32
2023-01-20T17:52:26.102Z,6.69
2023-01-20T17:54:56.627Z,6.74
2023-01-20T17:57:27.199Z,6.82
2023-01-20T17:59:57.044Z,6.52
2023-01-20T18:02:27.462Z,6.25
2023-01-20T18:04:56.954Z,6.94
2023-01-20T18:07:30.535Z,5.95
2023-01-20T18:10:02.912Z,6.86
2023-01-20T18:12:33.054Z,6.66
2023-01-20T18:15:04.336Z,6.68
2023-01-20T18:17:34.639Z,6.64
2023-01-20T18:20:05.344Z,6.53
2023-01-20T18:22:36.562Z,6.30
2023-01-20T18:25:07.969Z,5.76
2023-01-20T18:27:38.614Z,5.54
2023-01-20T18:30:09.235Z,6.40
2023-01-20T18:32:44.071Z,5.84
2023-01-20T18:35:15.065Z,6.21
2023-01-20T18:37:46.679Z,6.29
2023-01-20T18:40:17.318Z,6.21
2023-01-20T18:42:47.375Z,5.73
2023-01-20T18:45:17.119Z,6.18
2023-01-20T18:47:50.242Z,5.25
2023-01-20T18:50:21.682Z,5.90
2023-01-20T18:52:56.209Z,5.21
2023-01-20T18:55:26.372Z,5.87
2023-01-20T18:57:57.069Z,5.46
2023-01-20T19:00:28.067Z,5.84
2023-01-20T19:02:58.798Z,5.90
2023-01-20T19:05:29.302Z,5.61
2023-01-20T19:08:00.136Z,5.59
2023-01-20T19:10:30.883Z,5.22
2023-01-20T19:13:06.831Z,5.55
2023-01-20T19:15:38.584Z,4.74
2023-01-20T19:18:08.845Z,5.53
2023-01-20T19:20:39.955Z,5.38
2023-01-20T19:23:14.080Z,5.66
2023-01-20T19:25:44.991Z,5.68
2023-01-20T19:28:15.492Z,5.54
2023-01-20T19:30:46.897Z,5.27
2023-01-20T19:33:17.683Z,5.13
2023-01-20T19:35:47.639Z,5.20
2023-01-20T19:38:20.114Z,4.43
2023-01-20T19:40:50.943Z,4.78
2023-01-20T19:43:21.475Z,5.09
2023-01-20T19:45:52.340Z,4.47
2023-01-20T19:48:26.826Z,4.85
2023-01-20T19:51:00.560Z,4.82
2023-01-20T19:53:47.631Z,4.86
2023-01-20T19:56:23.860Z,3.68
2023-01-20T19:58:55.784Z,5.44
2023-01-20T20:01:31.329Z,4.34
2023-01-20T20:04:06.667Z,4.30
2023-01-20T20:06:38.347Z,3.39
2023-01-20T20:09:13.682Z,3.54
2023-01-20T20:11:44.611Z,3.89
2023-01-20T20:14:17.020Z,4.33
2023-01-20T20:16:48.033Z,3.73
2023-01-20T20:19:21.483Z,4.30
2023-01-20T20:21:56.350Z,4.34
2023-01-20T20:24:30.959Z,4.41
2023-01-20T20:27:02.463Z,4.37
2023-01-20T20:29:33.026Z,4.07
2023-01-20T20:32:03.106Z,4.15
2023-01-20T20:34:33.831Z,4.17
2023-01-20T20:37:07.801Z,4.20
2023-01-20T20:39:39.169Z,4.28
2023-01-20T20:42:09.791Z,4.32
2023-01-20T20:44:40.328Z,2.24
2023-01-20T20:47:11.730Z,3.16
2023-01-20T20:49:43.041Z,3.71
2023-01-20T20:52:13.343Z,3.06
2023-01-20T20:54:44.815Z,3.43
2023-01-20T20:57:15.765Z,3.67
2023-01-20T20:59:58.614Z,3.39
2023-01-20T21:02:30.202Z,3.46
2023-01-20T21:05:00.689Z,6.27
2023-01-20T21:07:31.616Z,4.96
2023-01-20T21:10:04.960Z,5.67
2023-01-20T21:12:34.858Z,2.92
2023-01-20T21:15:05.530Z,3.55
2023-01-20T21:17:36.400Z,3.69
2023-01-20T21:20:07.380Z,3.70
2023-01-20T21:22:36.681Z,1.76
2023-01-20T21:25:10.273Z,3.63
2023-01-20T21:27:41.171Z,3.71
2023-01-20T21:30:12.631Z,3.78
2023-01-20T21:32:44.836Z,3.45
2023-01-20T21:35:15.371Z,3.42
2023-01-20T21:37:45.569Z,2.51
2023-01-20T21:40:16.960Z,3.51
2023-01-20T21:42:47.424Z,3.48
2023-01-20T21:45:16.568Z,3.30
2023-01-20T21:47:46.145Z,3.14
2023-01-20T21:50:33.847Z,3.35
2023-01-20T21:53:03.942Z,3.39
2023-01-20T21:55:38.022Z,3.31
2023-01-20T21:58:10.381Z,3.36
2023-01-20T22:00:40.459Z,3.24
2023-01-20T22:03:11.018Z,3.12
2023-01-20T22:05:41.470Z,2.65
2023-01-20T22:08:11.885Z,3.10
2023-01-20T22:10:42.814Z,2.00
2023-01-20T22:13:13.833Z,2.13
2023-01-20T22:15:43.988Z,2.94
2023-01-20T22:18:14.194Z,2.87
2023-01-20T22:20:44.422Z,2.89
2023-01-20T22:23:15.149Z,2.37
2023-01-20T22:25:46.888Z,2.88
2023-01-20T22:28:17.009Z,2.75
2023-01-20T22:30:48.316Z,2.84
2023-01-20T22:33:18.349Z,1.64
2023-01-20T22:35:50.305Z,2.07
2023-01-20T22:38:20.441Z,2.38
2023-01-20T22:40:51.956Z,2.29
2023-01-20T22:43:22.193Z,1.79
2023-01-20T22:46:01.624Z,2.49
2023-01-20T22:48:34.172Z,2.76
2023-01-20T22:51:05.560Z,2.67
2023-01-20T22:53:36.480Z,2.19
2023-01-20T22:56:13.869Z,2.14
2023-01-20T22:58:45.339Z,2.11
2023-01-20T23:01:17.667Z,4.77
2023-01-20T23:03:56.913Z,4.56
2023-01-20T23:06:28.706Z,4.55
2023-01-20T23:08:58.860Z,5.21
2023-01-20T23:11:31.840Z,5.16
2023-01-20T23:14:01.885Z,4.97
2023-01-20T23:16:32.388Z,5.23
2023-01-20T23:19:02.815Z,5.27
2023-01-20T23:21:33.851Z,4.57
2023-01-20T23:24:03.743Z,3.89
2023-01-20T23:26:35.392Z,5.20
2023-01-20T23:29:05.511Z,2.95
2023-01-20T23:31:35.647Z,2.60
2023-01-20T23:34:05.991Z,2.43
2023-01-20T23:36:36.031Z,4.11
2023-01-20T23:39:06.319Z,1.92
2023-01-20T23:41:37.460Z,2.75
2023-01-20T23:44:07.908Z,2.16
2023-01-20T23:46:37.373Z,2.33
2023-01-20T23:49:07.673Z,2.00
2023-01-20T23:51:40.300Z,2.38
2023-01-20T23:54:13.479Z,2.20
2023-01-20T23:56:44.540Z,4.54
2023-01-20T23:59:14.944Z,5.05
